Tetney, United Kingdom
Current Conditions -  °F | °C
As of 8:50 PM on Friday 19 Dec 2014 (Local Time) from EGXS Reporting Station
Broken Clouds Broken Clouds  
Wind Chill:   Ceiling: 3000
Heat Index:   Visibility: 6mi
Dew Point:   Wind: 12mph
Humidity: 81%   Direction: 230°SW
Pressure: 29.97"   Gusts: NA
Location:  53.49°N, 0.02°W
Report Text: EGXS 192050Z AUTO 23010KT 9999 // BKN030/// 06/03 Q1015
Loading
Personal Weather Stations






























Interactive Weather Map New forecast layout! Learn more

10-Day Weather Forecast

Advertisements
Track Severe Weather on mobile